Terminal Aerodrome Forecast
Issued by NWS Sterling, VA

Home | Current Version | Previous Version | Text Only | Print | Product List | Glossary On
Versions: 1 2 3 4 5 6 7 8 9 10 11 12 13 14 15 16 17 18 19 20 21 22
000
FTUS41 KLWX 211500 AAA
TAFBWI
TAF AMD
KBWI 211500Z 2115/2218 12003KT P6SM SCT250
     FM211900 15005KT P6SM FEW200
     FM221500 20006KT P6SM BKN110=

USA.gov is the U.S. government's official web portal to all federal, state and local government web resources and services.